createdAt,value
2018-09-16T00:00:46.941Z,13.90
2018-09-16T00:03:19.403Z,13.90
2018-09-16T00:05:51.916Z,13.80
2018-09-16T00:08:24.369Z,13.80
2018-09-16T00:10:57.084Z,13.90
2018-09-16T00:13:29.459Z,13.90
2018-09-16T00:16:01.873Z,13.90
2018-09-16T00:18:34.483Z,13.90
2018-09-16T00:21:07.007Z,13.90
2018-09-16T00:23:39.390Z,13.80
2018-09-16T00:26:11.854Z,13.80
2018-09-16T00:28:44.249Z,13.90
2018-09-16T00:31:16.678Z,13.90
2018-09-16T00:33:49.186Z,13.80
2018-09-16T00:36:21.636Z,13.80
2018-09-16T00:38:54.196Z,13.90
2018-09-16T00:41:26.631Z,13.90
2018-09-16T00:43:58.986Z,13.90
2018-09-16T00:46:31.434Z,13.70
2018-09-16T00:49:03.933Z,13.60
2018-09-16T00:51:36.428Z,13.60
2018-09-16T00:54:08.774Z,13.50
2018-09-16T00:56:41.225Z,13.60
2018-09-16T00:59:13.799Z,13.50
2018-09-16T01:01:46.339Z,13.50
2018-09-16T01:04:18.732Z,13.60
2018-09-16T01:06:51.207Z,13.70
2018-09-16T01:09:23.667Z,13.60
2018-09-16T01:11:56.142Z,13.60
2018-09-16T01:14:28.541Z,13.60
2018-09-16T01:17:01.449Z,13.80
2018-09-16T01:19:33.934Z,13.80
2018-09-16T01:22:06.799Z,13.80
2018-09-16T01:24:39.246Z,13.80
2018-09-16T01:27:11.694Z,13.80
2018-09-16T01:29:44.121Z,13.80
2018-09-16T01:32:16.787Z,13.80
2018-09-16T01:34:49.194Z,13.80
2018-09-16T01:37:27.338Z,13.80
2018-09-16T01:39:59.846Z,13.80
2018-09-16T01:42:32.298Z,13.80
2018-09-16T01:45:04.725Z,13.90
2018-09-16T01:47:37.399Z,13.80
2018-09-16T01:50:09.834Z,13.80
2018-09-16T01:52:42.485Z,13.90
2018-09-16T01:55:14.926Z,14.00
2018-09-16T01:57:47.570Z,13.90
2018-09-16T02:00:23.754Z,13.90
2018-09-16T02:02:56.265Z,14.00
2018-09-16T02:05:34.623Z,13.90
2018-09-16T02:08:07.038Z,13.90
2018-09-16T02:10:39.710Z,13.90
2018-09-16T02:13:12.192Z,13.90
2018-09-16T02:15:45.193Z,13.80
2018-09-16T02:18:17.609Z,13.70
2018-09-16T02:20:50.137Z,13.60
2018-09-16T02:23:22.591Z,13.50
2018-09-16T02:25:55.050Z,13.60
2018-09-16T02:28:27.531Z,13.50
2018-09-16T02:30:59.955Z,13.50
2018-09-16T02:33:32.500Z,13.40
2018-09-16T02:36:05.249Z,13.50
2018-09-16T02:38:37.710Z,13.50
2018-09-16T02:41:10.324Z,13.50
2018-09-16T02:43:42.967Z,13.60
2018-09-16T02:46:15.354Z,13.70
2018-09-16T02:48:47.820Z,13.80
2018-09-16T02:51:20.230Z,13.90
2018-09-16T02:53:52.672Z,14.00
2018-09-16T02:56:25.097Z,13.70
2018-09-16T02:58:57.518Z,13.60
2018-09-16T03:01:30.012Z,13.50
2018-09-16T03:04:02.503Z,13.50
2018-09-16T03:06:34.993Z,13.40
2018-09-16T03:09:07.522Z,13.50
2018-09-16T03:11:40.011Z,13.50
2018-09-16T03:14:12.430Z,13.50
2018-09-16T03:16:44.866Z,13.40
2018-09-16T03:19:17.286Z,13.40
2018-09-16T03:24:22.491Z,13.30
2018-09-16T03:26:54.959Z,13.30
2018-09-16T03:29:27.368Z,13.30
2018-09-16T03:31:59.838Z,13.30
2018-09-16T03:34:32.297Z,13.30
2018-09-16T03:37:04.974Z,13.30
2018-09-16T03:39:37.571Z,13.30
2018-09-16T03:42:10.091Z,13.30
2018-09-16T03:44:42.948Z,13.30
2018-09-16T03:47:15.426Z,13.30
2018-09-16T03:49:47.855Z,13.30
2018-09-16T03:52:20.307Z,13.20
2018-09-16T03:54:52.750Z,13.30
2018-09-16T03:59:58.158Z,13.20
2018-09-16T04:02:31.442Z,13.20
2018-09-16T04:05:03.892Z,13.20
2018-09-16T04:07:36.318Z,13.20
2018-09-16T04:10:09.092Z,13.20
2018-09-16T04:12:41.527Z,13.20
2018-09-16T04:15:13.978Z,13.20
2018-09-16T04:17:46.384Z,13.20
2018-09-16T04:20:18.967Z,13.20
2018-09-16T04:22:51.405Z,13.10
2018-09-16T04:25:24.129Z,13.20
2018-09-16T04:27:56.503Z,13.20
2018-09-16T04:30:28.894Z,13.20
2018-09-16T04:33:01.313Z,13.20
2018-09-16T04:35:33.917Z,13.20
2018-09-16T04:38:06.276Z,13.20
2018-09-16T04:40:39.075Z,13.20
2018-09-16T04:43:11.519Z,13.20
2018-09-16T04:45:44.087Z,13.20
2018-09-16T04:48:16.488Z,13.20
2018-09-16T04:50:48.997Z,13.20
2018-09-16T04:53:21.395Z,13.40
2018-09-16T04:55:53.836Z,13.50
2018-09-16T04:58:26.283Z,13.50
2018-09-16T05:00:58.733Z,13.60
2018-09-16T05:03:31.262Z,13.40
2018-09-16T05:06:03.698Z,13.50
2018-09-16T05:08:36.050Z,13.60
2018-09-16T05:11:08.467Z,13.50
2018-09-16T05:13:40.848Z,13.50
2018-09-16T05:16:13.601Z,13.40
2018-09-16T05:18:46.003Z,13.40
2018-09-16T05:21:18.394Z,13.50
2018-09-16T05:23:52.210Z,13.60
2018-09-16T05:26:24.593Z,13.80
2018-09-16T05:28:57.005Z,13.70
2018-09-16T05:31:29.494Z,13.90
2018-09-16T05:34:01.843Z,13.80
2018-09-16T05:36:34.228Z,13.90
2018-09-16T05:39:07.891Z,13.80
2018-09-16T05:41:40.262Z,13.80
2018-09-16T05:44:12.767Z,13.80
2018-09-16T05:46:45.197Z,13.70
2018-09-16T05:49:17.581Z,13.70
2018-09-16T05:51:50.382Z,13.70
2018-09-16T05:54:22.744Z,13.90
2018-09-16T05:56:55.451Z,14.00
2018-09-16T05:59:27.841Z,14.10
2018-09-16T06:02:00.386Z,14.10
2018-09-16T06:04:32.834Z,14.00
2018-09-16T06:07:05.285Z,14.00
2018-09-16T06:09:37.707Z,14.10
2018-09-16T06:12:10.459Z,14.10
2018-09-16T06:14:42.869Z,14.10
2018-09-16T06:17:15.290Z,14.20
2018-09-16T06:19:47.746Z,14.30
2018-09-16T06:22:20.139Z,14.30
2018-09-16T06:24:52.735Z,14.30
2018-09-16T06:27:25.155Z,14.40
2018-09-16T06:29:57.609Z,14.50
2018-09-16T06:32:30.021Z,14.60
2018-09-16T06:35:02.461Z,14.60
2018-09-16T06:37:34.920Z,14.70
2018-09-16T06:40:07.332Z,14.70
2018-09-16T06:42:39.771Z,14.80
2018-09-16T06:45:12.283Z,14.80
2018-09-16T06:47:44.674Z,14.70
2018-09-16T06:50:17.099Z,14.80
2018-09-16T06:52:49.526Z,14.80
2018-09-16T06:55:22.013Z,14.90
2018-09-16T06:57:54.384Z,15.00
2018-09-16T07:00:26.827Z,15.00
2018-09-16T07:02:59.169Z,15.00
2018-09-16T07:05:31.709Z,15.10
2018-09-16T07:08:04.247Z,15.20
2018-09-16T07:10:36.667Z,15.30
2018-09-16T07:13:09.079Z,15.30
2018-09-16T07:15:41.535Z,15.40
2018-09-16T07:18:13.926Z,15.30
2018-09-16T07:20:46.338Z,15.40
2018-09-16T07:23:18.746Z,15.40
2018-09-16T07:25:51.241Z,15.50
2018-09-16T07:28:23.684Z,15.60
2018-09-16T07:30:56.096Z,15.60
2018-09-16T07:33:28.910Z,15.70
2018-09-16T07:36:01.289Z,15.60
2018-09-16T07:38:33.737Z,15.70
2018-09-16T07:41:06.166Z,15.70
2018-09-16T07:43:38.587Z,15.80
2018-09-16T07:46:11.172Z,15.90
2018-09-16T07:48:43.683Z,15.90
2018-09-16T07:51:16.166Z,16.00
2018-09-16T07:53:48.558Z,16.10
2018-09-16T07:56:20.903Z,16.20
2018-09-16T07:58:53.374Z,16.20
2018-09-16T08:01:25.778Z,16.30
2018-09-16T08:06:32.132Z,16.50
2018-09-16T08:09:06.605Z,16.50
2018-09-16T08:11:39.189Z,16.60
2018-09-16T08:14:11.878Z,16.70
2018-09-16T08:16:44.415Z,16.70
2018-09-16T08:19:16.846Z,16.70
2018-09-16T08:21:49.281Z,16.80
2018-09-16T08:24:21.961Z,16.90
2018-09-16T08:26:54.661Z,17.00
2018-09-16T08:29:27.047Z,17.00
2018-09-16T08:31:59.666Z,17.10
2018-09-16T08:34:32.049Z,17.20
2018-09-16T08:37:04.731Z,17.20
2018-09-16T08:39:37.166Z,17.30
2018-09-16T08:42:09.787Z,17.40
2018-09-16T08:44:42.466Z,17.30
2018-09-16T08:47:14.952Z,17.20
2018-09-16T08:49:47.408Z,17.20
2018-09-16T08:52:20.026Z,17.30
2018-09-16T08:54:52.445Z,17.40
2018-09-16T08:57:24.866Z,17.40
2018-09-16T08:59:57.323Z,17.40
2018-09-16T09:02:29.760Z,17.50
2018-09-16T09:05:02.272Z,17.60
2018-09-16T09:07:34.812Z,17.70
2018-09-16T09:10:07.225Z,17.80
2018-09-16T09:12:39.958Z,17.80
2018-09-16T09:15:12.393Z,18.00
2018-09-16T09:17:44.905Z,18.00
2018-09-16T09:20:17.352Z,18.00
2018-09-16T09:22:50.092Z,18.10
2018-09-16T09:25:22.707Z,18.20
2018-09-16T09:27:56.261Z,18.20
2018-09-16T09:30:28.895Z,18.20
2018-09-16T09:33:01.454Z,18.20
2018-09-16T09:35:34.050Z,18.30
2018-09-16T09:38:06.473Z,18.50
2018-09-16T09:40:39.030Z,18.70
2018-09-16T09:43:11.496Z,18.90
2018-09-16T09:45:43.909Z,19.00
2018-09-16T09:48:16.417Z,19.00
2018-09-16T09:50:48.924Z,19.00
2018-09-16T09:53:22.970Z,19.00
2018-09-16T09:55:55.728Z,19.00
2018-09-16T09:58:28.611Z,19.00
2018-09-16T10:01:01.222Z,19.00
2018-09-16T10:03:33.742Z,19.30
2018-09-16T10:06:06.473Z,19.50
2018-09-16T10:08:38.957Z,19.50
2018-09-16T10:11:11.342Z,19.40
2018-09-16T10:13:43.814Z,19.30
2018-09-16T10:16:16.368Z,19.50
2018-09-16T10:18:48.762Z,19.40
2018-09-16T10:21:21.265Z,19.30
2018-09-16T10:23:54.034Z,19.30
2018-09-16T10:26:26.443Z,19.30
2018-09-16T10:28:58.948Z,19.40
2018-09-16T10:31:31.379Z,19.50
2018-09-16T10:34:03.810Z,19.90
2018-09-16T10:36:36.284Z,20.40
2018-09-16T10:39:10.006Z,20.40
2018-09-16T10:44:14.769Z,20.50
2018-09-16T10:46:47.144Z,20.30
2018-09-16T10:49:20.972Z,20.20
2018-09-16T10:51:53.409Z,20.00
2018-09-16T10:54:25.802Z,20.20
2018-09-16T10:56:58.258Z,20.30
2018-09-16T10:59:30.623Z,20.40
2018-09-16T11:02:03.010Z,20.40
2018-09-16T11:04:35.465Z,20.40
2018-09-16T11:07:07.896Z,20.40
2018-09-16T11:09:40.698Z,20.40
2018-09-16T11:12:13.123Z,20.30
2018-09-16T11:14:45.917Z,20.30
2018-09-16T11:17:18.319Z,20.40
2018-09-16T11:19:50.783Z,20.70
2018-09-16T11:22:23.218Z,20.80
2018-09-16T11:24:55.812Z,20.80
2018-09-16T11:27:28.428Z,20.80
2018-09-16T11:30:01.939Z,20.80
2018-09-16T11:32:34.393Z,20.60
2018-09-16T11:35:06.914Z,20.70
2018-09-16T11:37:39.325Z,20.40
2018-09-16T11:40:11.739Z,20.40
2018-09-16T11:42:44.131Z,20.50
2018-09-16T11:45:16.595Z,20.70
2018-09-16T11:47:49.034Z,20.70
2018-09-16T11:50:21.532Z,20.70
2018-09-16T11:52:53.928Z,20.70
2018-09-16T11:55:26.442Z,20.90
2018-09-16T11:57:58.824Z,20.90
2018-09-16T12:00:31.251Z,20.80
2018-09-16T12:03:03.759Z,20.80
2018-09-16T12:05:36.289Z,20.70
2018-09-16T12:08:08.777Z,20.90
2018-09-16T12:10:41.297Z,20.70
2018-09-16T12:13:13.773Z,20.90
2018-09-16T12:15:46.284Z,20.90
2018-09-16T12:18:18.715Z,21.00
2018-09-16T12:20:51.104Z,21.20
2018-09-16T12:23:23.522Z,21.40
2018-09-16T12:25:56.014Z,21.30
2018-09-16T12:28:28.434Z,21.20
2018-09-16T12:31:00.887Z,21.20
2018-09-16T12:33:33.327Z,21.30
2018-09-16T12:36:05.803Z,21.40
2018-09-16T12:38:38.613Z,21.50
2018-09-16T12:41:11.146Z,21.80
2018-09-16T12:43:43.647Z,22.00
2018-09-16T12:46:16.077Z,22.20
2018-09-16T12:48:48.524Z,22.00
2018-09-16T12:51:21.170Z,21.70
2018-09-16T12:53:53.579Z,21.70
2018-09-16T12:56:26.651Z,21.50
2018-09-16T12:58:59.102Z,21.40
2018-09-16T13:01:31.601Z,21.60
2018-09-16T13:04:04.226Z,21.80
2018-09-16T13:06:36.721Z,21.80
2018-09-16T13:09:10.543Z,21.80
2018-09-16T13:11:42.999Z,22.00
2018-09-16T13:14:15.360Z,21.70
2018-09-16T13:16:48.077Z,21.50
2018-09-16T13:19:20.486Z,21.40
2018-09-16T13:21:53.011Z,21.40
2018-09-16T13:24:25.455Z,21.50
2018-09-16T13:26:57.859Z,21.50
2018-09-16T13:29:30.399Z,21.70
2018-09-16T13:32:02.886Z,21.60
2018-09-16T13:34:35.322Z,21.70
2018-09-16T13:37:07.733Z,21.60
2018-09-16T13:39:40.475Z,21.70
2018-09-16T13:42:12.890Z,21.80
2018-09-16T13:44:45.341Z,21.90
2018-09-16T13:47:17.740Z,22.00
2018-09-16T13:49:50.158Z,22.20
2018-09-16T13:52:22.655Z,21.90
2018-09-16T13:54:55.076Z,21.80
2018-09-16T13:57:27.456Z,21.90
2018-09-16T14:00:00.071Z,22.10
2018-09-16T14:02:32.576Z,22.20
2018-09-16T14:05:05.241Z,22.10
2018-09-16T14:07:37.618Z,22.10
2018-09-16T14:10:10.074Z,22.20
2018-09-16T14:12:42.542Z,22.20
2018-09-16T14:15:15.018Z,22.20
2018-09-16T14:17:47.456Z,22.20
2018-09-16T14:20:19.899Z,22.20
2018-09-16T14:22:52.358Z,22.20
2018-09-16T14:25:24.806Z,22.30
2018-09-16T14:27:57.506Z,22.30
2018-09-16T14:30:29.875Z,22.30
2018-09-16T14:33:02.333Z,22.20
2018-09-16T14:35:34.744Z,22.20
2018-09-16T14:38:07.198Z,22.10
2018-09-16T14:40:39.742Z,21.90
2018-09-16T14:43:12.112Z,21.80
2018-09-16T14:45:44.583Z,21.70
2018-09-16T14:48:17.230Z,21.60
2018-09-16T14:50:49.642Z,21.60
2018-09-16T14:53:22.110Z,21.50
2018-09-16T14:55:54.515Z,21.40
2018-09-16T14:58:26.918Z,21.40
2018-09-16T15:00:59.468Z,21.50
2018-09-16T15:03:31.862Z,21.70
2018-09-16T15:06:04.333Z,21.70
2018-09-16T15:08:36.777Z,21.90
2018-09-16T15:11:09.234Z,22.00
2018-09-16T15:13:41.744Z,22.10
2018-09-16T15:16:14.456Z,22.00
2018-09-16T15:18:46.873Z,21.90
2018-09-16T15:21:19.378Z,21.90
2018-09-16T15:23:52.082Z,21.80
2018-09-16T15:26:24.523Z,21.70
2018-09-16T15:28:57.033Z,21.60
2018-09-16T15:31:29.511Z,21.50
2018-09-16T15:34:01.886Z,21.50
2018-09-16T15:36:34.298Z,21.40
2018-09-16T15:39:07.572Z,21.30
2018-09-16T15:41:40.090Z,21.10
2018-09-16T15:44:12.538Z,21.00
2018-09-16T15:46:44.946Z,21.00
2018-09-16T15:49:17.426Z,21.00
2018-09-16T15:51:49.788Z,20.90
2018-09-16T15:54:23.876Z,20.80
2018-09-16T15:56:56.348Z,20.70
2018-09-16T15:59:29.223Z,20.60
2018-09-16T16:02:01.724Z,20.60
2018-09-16T16:04:34.523Z,20.50
2018-09-16T16:07:06.947Z,20.40
2018-09-16T16:09:39.867Z,20.30
2018-09-16T16:12:12.326Z,20.30
2018-09-16T16:14:44.883Z,20.20
2018-09-16T16:17:17.293Z,20.20
2018-09-16T16:19:49.714Z,20.20
2018-09-16T16:22:22.185Z,20.20
2018-09-16T16:24:54.637Z,20.20
2018-09-16T16:27:27.187Z,20.20
2018-09-16T16:29:59.653Z,20.20
2018-09-16T16:32:32.118Z,20.30
2018-09-16T16:35:04.611Z,20.20
2018-09-16T16:37:37.336Z,20.20
2018-09-16T16:40:09.765Z,20.20
2018-09-16T16:42:42.242Z,20.10
2018-09-16T16:45:14.722Z,20.10
2018-09-16T16:47:47.168Z,20.00
2018-09-16T16:50:19.608Z,20.00
2018-09-16T16:52:52.066Z,19.90
2018-09-16T16:55:24.538Z,19.80
2018-09-16T16:57:56.958Z,19.80
2018-09-16T17:00:29.404Z,19.70
2018-09-16T17:03:01.818Z,19.60
2018-09-16T17:05:34.247Z,19.50
2018-09-16T17:08:06.774Z,19.50
2018-09-16T17:10:39.367Z,19.50
2018-09-16T17:13:13.793Z,19.40
2018-09-16T17:15:46.519Z,19.30
2018-09-16T17:18:18.921Z,19.30
2018-09-16T17:20:51.344Z,19.20
2018-09-16T17:23:24.136Z,19.20
2018-09-16T17:25:56.587Z,19.10
2018-09-16T17:28:29.063Z,19.20
2018-09-16T17:31:01.458Z,19.10
2018-09-16T17:33:33.920Z,19.00
2018-09-16T17:36:06.638Z,19.00
2018-09-16T17:38:39.129Z,19.00
2018-09-16T17:41:11.673Z,19.00
2018-09-16T17:43:45.741Z,19.00
2018-09-16T17:46:16.723Z,18.90
2018-09-16T17:48:49.271Z,18.90
2018-09-16T17:51:23.637Z,18.90
2018-09-16T17:53:56.347Z,18.80
2018-09-16T17:56:29.198Z,18.80
2018-09-16T17:59:01.888Z,18.80
2018-09-16T18:01:34.361Z,18.70
2018-09-16T18:04:06.846Z,18.70
2018-09-16T18:06:39.292Z,18.70
2018-09-16T18:09:12.144Z,18.70
2018-09-16T18:11:44.927Z,18.70
2018-09-16T18:14:17.457Z,18.70
2018-09-16T18:16:50.664Z,18.70
2018-09-16T18:19:23.511Z,18.60
2018-09-16T18:21:56.038Z,18.60
2018-09-16T18:24:28.523Z,18.60
2018-09-16T18:27:01.470Z,18.60
2018-09-16T18:29:34.021Z,18.60
2018-09-16T18:32:06.424Z,18.60
2018-09-16T18:34:38.850Z,18.50
2018-09-16T18:37:12.466Z,18.50
2018-09-16T18:39:45.031Z,18.50
2018-09-16T18:42:18.082Z,18.40
2018-09-16T18:44:50.556Z,18.50
2018-09-16T18:47:23.232Z,18.40
2018-09-16T18:49:55.914Z,18.40
2018-09-16T18:52:28.563Z,18.40
2018-09-16T18:55:01.471Z,18.30
2018-09-16T18:57:34.000Z,18.30
2018-09-16T19:00:06.691Z,18.30
2018-09-16T19:02:39.106Z,18.30
2018-09-16T19:05:11.565Z,18.20
2018-09-16T19:07:44.022Z,18.20
2018-09-16T19:10:16.453Z,18.20
2018-09-16T19:12:49.170Z,18.10
2018-09-16T19:15:21.587Z,18.10
2018-09-16T19:17:54.168Z,18.10
2018-09-16T19:20:26.690Z,18.10
2018-09-16T19:22:59.218Z,18.10
2018-09-16T19:25:31.753Z,18.10
2018-09-16T19:28:04.203Z,18.00
2018-09-16T19:30:36.582Z,18.00
2018-09-16T19:33:09.072Z,18.00
2018-09-16T19:35:41.491Z,17.90
2018-09-16T19:38:13.974Z,17.90
2018-09-16T19:40:46.375Z,17.90
2018-09-16T19:43:18.806Z,17.90
2018-09-16T19:45:51.331Z,17.90
2018-09-16T19:48:24.118Z,17.90
2018-09-16T19:50:56.584Z,17.90
2018-09-16T19:53:28.975Z,17.80
2018-09-16T19:56:01.410Z,17.80
2018-09-16T19:58:33.971Z,17.70
2018-09-16T20:01:06.675Z,17.70
2018-09-16T20:03:39.076Z,17.70
2018-09-16T20:06:11.728Z,17.70
2018-09-16T20:08:44.666Z,17.60
2018-09-16T20:11:17.276Z,17.50
2018-09-16T20:13:49.731Z,17.50
2018-09-16T20:16:22.209Z,17.50
2018-09-16T20:18:54.701Z,17.50
2018-09-16T20:21:27.141Z,17.50
2018-09-16T20:23:59.548Z,17.40
2018-09-16T20:26:32.017Z,17.40
2018-09-16T20:29:04.488Z,17.50
2018-09-16T20:31:36.930Z,17.40
2018-09-16T20:34:09.887Z,17.40
2018-09-16T20:36:42.326Z,17.30
2018-09-16T20:39:18.034Z,17.40
2018-09-16T20:41:50.516Z,17.40
2018-09-16T20:44:23.052Z,17.30
2018-09-16T20:46:55.493Z,17.30
2018-09-16T20:49:27.930Z,17.30
2018-09-16T20:52:00.378Z,17.20
2018-09-16T20:54:32.852Z,17.20
2018-09-16T20:57:05.364Z,17.20
2018-09-16T20:59:39.244Z,17.10
2018-09-16T21:02:11.810Z,17.00
2018-09-16T21:04:44.287Z,17.00
2018-09-16T21:07:16.947Z,17.00
2018-09-16T21:09:49.935Z,17.00
2018-09-16T21:12:22.405Z,16.90
2018-09-16T21:14:54.958Z,16.90
2018-09-16T21:17:27.382Z,16.80
2018-09-16T21:20:00.554Z,16.80
2018-09-16T21:22:32.856Z,16.80
2018-09-16T21:25:05.394Z,16.80
2018-09-16T21:27:37.833Z,16.80
2018-09-16T21:30:10.292Z,16.70
2018-09-16T21:32:42.660Z,16.80
2018-09-16T21:35:15.063Z,16.80
2018-09-16T21:37:47.499Z,16.80
2018-09-16T21:40:20.037Z,16.80
2018-09-16T21:42:52.515Z,16.80
2018-09-16T21:45:24.995Z,16.80
2018-09-16T21:47:57.455Z,16.80
2018-09-16T21:50:29.931Z,16.80
2018-09-16T21:53:02.395Z,16.70
2018-09-16T21:55:34.879Z,16.80
2018-09-16T21:58:07.286Z,16.80
2018-09-16T22:00:44.397Z,16.80
2018-09-16T22:03:16.930Z,16.80
2018-09-16T22:05:49.716Z,16.70
2018-09-16T22:08:22.111Z,16.70
2018-09-16T22:10:54.530Z,16.70
2018-09-16T22:13:27.098Z,16.80
2018-09-16T22:15:59.631Z,16.80
2018-09-16T22:18:32.065Z,16.80
2018-09-16T22:21:04.661Z,16.80
2018-09-16T22:23:37.045Z,16.80
2018-09-16T22:26:09.481Z,16.80
2018-09-16T22:28:41.853Z,16.80
2018-09-16T22:31:14.285Z,16.70
2018-09-16T22:33:46.967Z,16.70
2018-09-16T22:36:19.403Z,16.60
2018-09-16T22:38:51.801Z,16.60
2018-09-16T22:41:24.267Z,16.60
2018-09-16T22:43:56.675Z,16.50
2018-09-16T22:46:29.114Z,16.50
2018-09-16T22:49:01.786Z,16.50
2018-09-16T22:51:34.226Z,16.50
2018-09-16T22:54:06.750Z,16.50
2018-09-16T22:56:39.199Z,16.40
2018-09-16T22:59:11.735Z,16.40
2018-09-16T23:01:44.239Z,16.30
2018-09-16T23:04:16.682Z,16.30
2018-09-16T23:06:49.106Z,16.30
2018-09-16T23:09:21.873Z,16.30
2018-09-16T23:11:54.262Z,16.30
2018-09-16T23:14:26.747Z,16.30
2018-09-16T23:16:59.197Z,16.30
2018-09-16T23:19:31.616Z,16.30
2018-09-16T23:22:04.252Z,16.30
2018-09-16T23:24:36.675Z,16.30
2018-09-16T23:27:09.167Z,16.30
2018-09-16T23:29:41.583Z,16.40
2018-09-16T23:32:13.972Z,16.30
2018-09-16T23:34:46.447Z,16.20
2018-09-16T23:37:18.838Z,16.30
2018-09-16T23:39:51.563Z,16.20
2018-09-16T23:42:24.166Z,16.30
2018-09-16T23:44:56.585Z,16.20
2018-09-16T23:47:29.048Z,16.10
2018-09-16T23:50:01.793Z,16.20
2018-09-16T23:52:34.168Z,16.20
2018-09-16T23:55:06.639Z,16.20
2018-09-16T23:57:39.102Z,16.20
